KBYS

Bicycle Lake AAF Airport

Fort Irwin/Barstow, California, USA
METAR KBYS 150255Z AUTO 22015G21KT 10SM SCT120 36/04 A2980 RMK AO2 SLP037 WND DATA ESTMD T03620037 55002
Observed Flight Rules
Aug-15 @ 02:55 UTC (42 minutes ago) Visual Flight Rules
Wind Visibility Clouds
220° at 15 knots
 Gusting to 21 knots
10 miles
  • Scattered at 12,000' AGL
Temperatures Readings
Current 36°C / 97°F
Dewpoint 4°C / 39°F
Humidity 13%
Altimeter 29.8" Hg
Pressure 1003.7 hPa
Elevation 716
METAR KBYS 150255Z AUTO 22015G21KT 10SM SCT120 36/04 A2980 RMK AO2 SLP037 WND DATA ESTMD T03620037 55002
Observed Flight Rules
Aug-15 @ 02:55 UTC
(42 minutes ago)
VFR
Wind Visibility
220° at 15 knots
 Gusting to 21 knots
10 miles
Clouds
  • Scattered at 12,000' AGL
Temperature Dewpoint
36°C / 97°F 4°C / 39°F
Humidity Altimeter Pressure
13% 29.8" Hg 1003.7 hPa